ŨҡʶҹյǨҡѵѵ
¤ͨҡ Żзҹ,. ʹҹ Թ ӡѴ(Ҫ) ʶҺѹʹȷѾҡùСɵ (ͧҪ)

         *ѡ ¶֧ŷҡ Żзҹ
          ѡչԹ ¶֧ŷҡ . ʹҹ Թ ӡѴ (Ҫ)
Name Date Time Solar.(W/m2) Temp.(oC) Hum.(%RH) Pres.(mBar) Rain1Hr.*(mm.) RainToday.*(mm.)
Ҥ˹
ӻҧ                
ͧ 2014-04-25 01:00:00 0 30.4 46 971 0 0
ͧԹ 2014-04-25 01:00:00 0 30.4 37 990 0 0
§                
ҹ 2014-04-24 08:00:00 95 31.9 40 973 0 0
ᾧྪ                
ͧҹ 2014-04-23 19:00:00 6 31.9 44 989 0 0.8
ҡ                
ͺ.ѧШ 2014-04-25 01:00:00 0 26.5 - - 0 0
ä                
˹ͧ 2014-04-24 20:20:00 0 26 47 1004 1.4 9.6
Ҥ 2014-04-24 20:00:00 0 29.9 54 1010 1 4.8
ҹ                
ҹ 2014-04-25 01:00:00 0 28.9 97 987 0 0
¹ 2014-04-25 01:00:00 0 30.9 77 982 0 0
               
§ǹ 2014-04-24 20:00:00 0 28.4 90 979 0 0
2014-04-24 20:00:00 0 27.4 54 975 0 0
ԨԵ                
2014-04-24 18:40:00 0 27.9 48 1005 0.6 0.6
ɳš                
ͺ.ҹ 2014-04-25 01:00:00 0 26.5 - - 0 0
.. ͧصˡ(2) 2014-04-25 01:00:00 0 26.5 - 987 0 0.2
ͺ.˹ͧ 2014-04-25 01:00:00 0 27.4 - 1005 0 0
Ӿٹ                
ҹ 2014-04-24 19:00:00 0 36.3 38 970 0 0
               
ӡü˭ҹѧҴ 2014-04-25 01:00:00 0 27.4 - 981 0 0
صôԵ                
ҹӵ 2014-04-25 01:00:00 6 25.5 - - 0 0
ͺ. 2014-04-25 01:00:00 0 26.5 - 975 0 0
...ʹ⾸ͧ 2014-04-25 01:00:00 0 24.5 - - 0 0
§                
ҹ 2014-04-24 20:00:00 0 30.4 70 952 0 0
ྪúó                
ҧѵ 2014-04-25 01:00:00 0 22.1 - - 0 0.6
               
ͺ.ҧٴ 2014-04-25 01:00:00 0 29.4 - - 0 0
ͧ͹                
2014-04-22 03:00:00 0 25.5 46 955 0 0

˵:
Rain1Hr. ҳ赡 ͧ §ҹ 14:00 赡 13:00 ֧ 14:00
RainToday ҳ赡 Ѻ 07:00 ͧѹ֧Ѩغѹ §ҹ 14:00 ͽ赡 07:00 ֧ 14:00
Rain Acc. ҳ ѺѹԴ ֧Ѩغѹ ҨçѺԧ ͧҡ кҨաش÷ӧҹ öѴҳ ҹ